createdAt,value
2023-01-15T00:00:46.260Z,6.28
2023-01-15T00:03:23.563Z,4.03
2023-01-15T00:05:58.729Z,4.88
2023-01-15T00:08:34.126Z,5.03
2023-01-15T00:11:10.172Z,4.90
2023-01-15T00:13:47.379Z,4.88
2023-01-15T00:16:26.066Z,5.45
2023-01-15T00:19:03.615Z,3.95
2023-01-15T00:21:39.161Z,3.90
2023-01-15T00:24:32.518Z,3.67
2023-01-15T00:27:35.699Z,5.90
2023-01-15T00:30:12.598Z,4.93
2023-01-15T00:32:50.709Z,4.78
2023-01-15T00:35:28.079Z,3.40
2023-01-15T00:38:04.007Z,3.70
2023-01-15T00:40:39.547Z,5.63
2023-01-15T00:43:15.527Z,6.40
2023-01-15T00:45:53.244Z,7.05
2023-01-15T00:48:30.342Z,7.82
2023-01-15T00:51:06.636Z,6.95
2023-01-15T00:53:42.540Z,4.72
2023-01-15T00:56:18.557Z,7.65
2023-01-15T00:58:53.957Z,6.32
2023-01-15T01:01:30.179Z,4.63
2023-01-15T01:04:08.351Z,2.97
2023-01-15T01:06:45.115Z,5.07
2023-01-15T01:09:21.167Z,5.72
2023-01-15T01:11:57.550Z,4.80
2023-01-15T01:14:33.939Z,5.43
2023-01-15T01:17:10.769Z,7.32
2023-01-15T01:19:48.414Z,4.05
2023-01-15T01:22:24.696Z,3.55
2023-01-15T01:25:01.067Z,4.47
2023-01-15T01:27:37.334Z,3.67
2023-01-15T01:30:14.578Z,5.72
2023-01-15T01:32:50.757Z,4.03
2023-01-15T01:35:28.790Z,3.35
2023-01-15T01:38:04.875Z,6.53
2023-01-15T01:40:43.219Z,3.10
2023-01-15T01:43:24.815Z,6.28
2023-01-15T01:46:01.187Z,5.78
2023-01-15T01:48:39.932Z,5.80
2023-01-15T01:51:17.826Z,5.65
2023-01-15T01:53:54.728Z,5.15
2023-01-15T01:56:30.867Z,5.05
2023-01-15T01:59:07.601Z,4.32
2023-01-15T02:01:43.035Z,4.97
2023-01-15T02:04:18.823Z,4.53
2023-01-15T02:06:58.593Z,3.85
2023-01-15T02:09:35.241Z,5.75
2023-01-15T02:12:18.078Z,6.47
2023-01-15T02:15:02.583Z,4.47
2023-01-15T02:17:46.532Z,6.13
2023-01-15T02:20:34.090Z,5.03
2023-01-15T02:23:33.075Z,6.35
2023-01-15T02:26:24.249Z,4.72
2023-01-15T02:29:04.587Z,6.78
2023-01-15T02:31:43.323Z,5.50
2023-01-15T02:34:25.572Z,8.27
2023-01-15T02:37:06.412Z,8.32
2023-01-15T02:39:46.607Z,6.28
2023-01-15T02:42:25.336Z,5.90
2023-01-15T02:45:06.061Z,4.50
2023-01-15T02:47:48.496Z,6.80
2023-01-15T02:50:30.133Z,5.93
2023-01-15T02:53:09.748Z,6.28
2023-01-15T02:55:49.323Z,8.52
2023-01-15T02:58:34.136Z,5.05
2023-01-15T03:01:18.726Z,6.20
2023-01-15T03:04:01.308Z,5.78
2023-01-15T03:06:45.995Z,5.93
2023-01-15T03:09:22.243Z,10.13
2023-01-15T03:12:09.741Z,7.70
2023-01-15T03:14:54.865Z,9.00
2023-01-15T03:17:40.717Z,7.25
2023-01-15T03:20:21.396Z,6.38
2023-01-15T03:23:03.197Z,7.88
2023-01-15T03:25:42.383Z,7.13
2023-01-15T03:28:19.217Z,5.35
2023-01-15T03:30:56.507Z,5.10
2023-01-15T03:33:36.134Z,5.18
2023-01-15T03:36:17.861Z,5.68
2023-01-15T03:38:56.821Z,7.18
2023-01-15T03:42:15.286Z,7.70
2023-01-15T03:45:01.102Z,6.35
2023-01-15T03:47:47.084Z,7.60
2023-01-15T03:50:37.013Z,8.57
2023-01-15T03:53:17.391Z,8.48
2023-01-15T03:56:13.109Z,8.05
2023-01-15T03:58:57.483Z,6.95
2023-01-15T04:01:46.107Z,6.70
2023-01-15T04:04:22.449Z,7.68
2023-01-15T04:07:01.715Z,6.32
2023-01-15T04:09:41.913Z,7.53
2023-01-15T04:12:19.486Z,7.70
2023-01-15T04:14:56.617Z,5.15
2023-01-15T04:17:32.949Z,8.10
2023-01-15T04:20:12.132Z,5.90
2023-01-15T04:22:52.111Z,6.72
2023-01-15T04:25:28.371Z,7.65
2023-01-15T04:28:04.465Z,8.85
2023-01-15T04:30:40.640Z,7.13
2023-01-15T04:33:17.020Z,8.35
2023-01-15T04:35:53.678Z,8.50
2023-01-15T04:38:30.958Z,6.35
2023-01-15T04:41:25.911Z,7.50
2023-01-15T04:44:11.004Z,7.15
2023-01-15T04:46:49.631Z,8.77
2023-01-15T04:49:24.970Z,10.88
2023-01-15T04:52:00.290Z,9.35
2023-01-15T04:54:37.768Z,6.65
2023-01-15T04:57:16.654Z,8.25
2023-01-15T04:59:51.894Z,7.53
2023-01-15T05:02:27.359Z,8.48
2023-01-15T05:05:03.887Z,10.68
2023-01-15T05:07:39.510Z,11.40
2023-01-15T05:10:17.524Z,10.82
2023-01-15T05:12:53.170Z,10.13
2023-01-15T05:15:28.782Z,10.27
2023-01-15T05:18:04.796Z,11.57
2023-01-15T05:20:42.652Z,12.43
2023-01-15T05:23:18.266Z,13.65
2023-01-15T05:25:55.846Z,9.38
2023-01-15T05:28:32.352Z,12.07
2023-01-15T05:31:13.060Z,12.68
2023-01-15T05:33:50.308Z,9.95
2023-01-15T05:36:27.525Z,11.73
2023-01-15T05:39:04.397Z,11.25
2023-01-15T05:41:54.478Z,11.90
2023-01-15T05:44:31.327Z,18.95
2023-01-15T05:47:09.176Z,13.10
2023-01-15T05:49:45.191Z,16.77
2023-01-15T05:52:21.103Z,10.52
2023-01-15T05:54:56.400Z,14.63
2023-01-15T05:57:34.616Z,15.00
2023-01-15T06:00:11.827Z,15.95
2023-01-15T06:02:53.388Z,16.85
2023-01-15T06:05:28.981Z,13.50
2023-01-15T06:08:05.496Z,12.07
2023-01-15T06:10:41.769Z,10.77
2023-01-15T06:13:19.379Z,12.10
2023-01-15T06:15:54.865Z,13.25
2023-01-15T06:18:30.616Z,12.05
2023-01-15T06:21:09.997Z,11.82
2023-01-15T06:23:46.726Z,18.35
2023-01-15T06:26:23.419Z,12.40
2023-01-15T06:29:01.299Z,11.02
2023-01-15T06:31:37.328Z,10.32
2023-01-15T06:34:12.685Z,15.27
2023-01-15T06:36:48.615Z,15.65
2023-01-15T06:39:24.631Z,13.57
2023-01-15T06:42:16.983Z,16.10
2023-01-15T06:45:10.215Z,14.07
2023-01-15T06:47:47.326Z,17.27
2023-01-15T06:50:23.277Z,16.30
2023-01-15T06:52:59.521Z,14.05
2023-01-15T06:55:34.837Z,12.63
2023-01-15T06:58:10.543Z,17.35
2023-01-15T07:00:55.125Z,19.17
2023-01-15T07:03:31.431Z,16.00
2023-01-15T07:06:11.758Z,17.70
2023-01-15T07:08:48.384Z,16.02
2023-01-15T07:11:23.727Z,16.17
2023-01-15T07:14:07.573Z,16.60
2023-01-15T07:16:45.062Z,15.77
2023-01-15T07:19:21.458Z,15.52
2023-01-15T07:21:57.045Z,15.73
2023-01-15T07:24:33.756Z,14.75
2023-01-15T07:27:10.073Z,17.15
2023-01-15T07:29:46.400Z,18.15
2023-01-15T07:32:24.342Z,13.38
2023-01-15T07:35:00.417Z,16.80
2023-01-15T07:37:36.068Z,17.67
2023-01-15T07:40:13.158Z,16.73
2023-01-15T07:43:04.705Z,15.88
2023-01-15T07:45:58.396Z,15.20
2023-01-15T07:48:52.157Z,14.70
2023-01-15T07:51:27.894Z,17.98
2023-01-15T07:54:03.343Z,16.08
2023-01-15T07:56:39.249Z,14.45
2023-01-15T07:59:14.846Z,15.68
2023-01-15T08:01:50.508Z,19.10
2023-01-15T08:04:27.915Z,15.00
2023-01-15T08:07:05.818Z,14.20
2023-01-15T08:09:42.473Z,15.38
2023-01-15T08:12:34.119Z,19.17
2023-01-15T08:15:19.422Z,15.55
2023-01-15T08:17:56.769Z,19.02
2023-01-15T08:20:34.505Z,14.07
2023-01-15T08:23:10.023Z,18.15
2023-01-15T08:25:46.260Z,15.98
2023-01-15T08:28:22.330Z,21.60
2023-01-15T08:30:59.076Z,19.08
2023-01-15T08:33:34.880Z,20.20
2023-01-15T08:36:12.880Z,19.15
2023-01-15T08:38:48.797Z,16.42
2023-01-15T08:41:28.201Z,36.35
2023-01-15T08:44:03.906Z,34.85
2023-01-15T08:46:39.366Z,20.90
2023-01-15T08:49:16.140Z,30.15
2023-01-15T08:51:53.823Z,25.60
2023-01-15T08:54:29.206Z,40.38
2023-01-15T08:57:06.165Z,102.07
2023-01-15T08:59:44.926Z,15.50
2023-01-15T09:02:21.496Z,15.73
2023-01-15T09:04:56.823Z,14.65
2023-01-15T09:07:34.691Z,20.23
2023-01-15T09:10:11.964Z,20.58
2023-01-15T09:12:48.506Z,19.70
2023-01-15T09:15:23.921Z,18.23
2023-01-15T09:17:59.796Z,17.25
2023-01-15T09:20:35.811Z,16.80
2023-01-15T09:23:14.092Z,17.23
2023-01-15T09:26:01.006Z,20.48
2023-01-15T09:28:37.258Z,16.13
2023-01-15T09:31:13.863Z,13.55
2023-01-15T09:33:49.727Z,15.80
2023-01-15T09:36:30.249Z,18.55
2023-01-15T09:39:09.077Z,18.52
2023-01-15T09:42:10.704Z,11.95
2023-01-15T09:45:08.152Z,14.93
2023-01-15T09:47:50.825Z,11.52
2023-01-15T09:50:34.681Z,13.30
2023-01-15T09:53:27.760Z,13.63
2023-01-15T09:56:07.155Z,13.95
2023-01-15T09:58:44.939Z,18.98
2023-01-15T10:01:24.342Z,12.90
2023-01-15T10:04:06.687Z,17.30
2023-01-15T10:06:48.116Z,15.00
2023-01-15T10:09:30.037Z,13.93
2023-01-15T10:12:34.420Z,15.05
2023-01-15T10:15:52.276Z,18.50
2023-01-15T10:18:29.519Z,13.27
2023-01-15T10:21:20.466Z,14.82
2023-01-15T10:24:15.988Z,15.85
2023-01-15T10:27:00.220Z,18.75
2023-01-15T10:29:53.816Z,15.07
2023-01-15T10:32:36.282Z,14.10
2023-01-15T10:35:28.455Z,17.60
2023-01-15T10:38:17.315Z,15.18
2023-01-15T10:41:19.735Z,12.15
2023-01-15T10:44:02.169Z,15.68
2023-01-15T10:46:58.468Z,14.82
2023-01-15T10:49:36.544Z,13.88
2023-01-15T10:52:26.082Z,13.30
2023-01-15T10:55:11.636Z,12.27
2023-01-15T10:58:09.250Z,17.60
2023-01-15T11:00:47.990Z,14.60
2023-01-15T11:03:29.896Z,15.25
2023-01-15T11:06:05.307Z,14.95
2023-01-15T11:11:58.694Z,12.63
2023-01-15T11:14:57.969Z,13.40
2023-01-15T11:17:52.077Z,15.45
2023-01-15T11:20:34.469Z,15.93
2023-01-15T11:23:16.515Z,14.43
2023-01-15T11:26:00.150Z,15.10
2023-01-15T11:28:44.826Z,12.07
2023-01-15T11:31:21.290Z,12.45
2023-01-15T11:34:09.344Z,12.18
2023-01-15T11:36:46.675Z,12.40
2023-01-15T11:39:30.122Z,16.98
2023-01-15T11:42:22.424Z,15.07
2023-01-15T11:45:33.047Z,13.30
2023-01-15T11:48:33.388Z,14.75
2023-01-15T11:51:12.537Z,16.95
2023-01-15T11:53:54.779Z,12.38
2023-01-15T11:56:35.128Z,14.93
2023-01-15T11:59:16.995Z,9.85
2023-01-15T12:02:01.853Z,16.70
2023-01-15T12:04:45.297Z,14.55
2023-01-15T12:07:26.028Z,12.40
2023-01-15T12:10:22.943Z,14.52
2023-01-15T12:13:10.376Z,13.82
2023-01-15T12:15:57.002Z,11.60
2023-01-15T12:18:49.704Z,13.70
2023-01-15T12:21:32.139Z,11.20
2023-01-15T12:24:20.310Z,11.23
2023-01-15T12:27:09.558Z,10.05
2023-01-15T12:29:51.110Z,12.27
2023-01-15T12:32:31.215Z,12.07
2023-01-15T12:35:10.932Z,15.98
2023-01-15T12:37:52.046Z,15.00
2023-01-15T12:40:34.129Z,14.50
2023-01-15T12:43:45.802Z,10.43
2023-01-15T12:46:24.259Z,12.43
2023-01-15T12:49:05.031Z,12.85
2023-01-15T12:51:51.882Z,17.08
2023-01-15T12:54:33.173Z,14.27
2023-01-15T12:57:18.123Z,11.43
2023-01-15T13:00:03.257Z,12.43
2023-01-15T13:02:47.650Z,14.27
2023-01-15T13:05:26.242Z,12.52
2023-01-15T13:08:08.862Z,12.82
2023-01-15T13:10:46.377Z,13.88
2023-01-15T13:13:24.862Z,13.63
2023-01-15T13:16:18.800Z,16.25
2023-01-15T13:19:08.672Z,13.55
2023-01-15T13:21:45.955Z,10.95
2023-01-15T13:24:47.362Z,11.32
2023-01-15T13:27:44.726Z,15.43
2023-01-15T13:30:37.776Z,12.57
2023-01-15T13:33:21.372Z,12.95
2023-01-15T13:35:58.121Z,11.43
2023-01-15T13:38:34.055Z,15.23
2023-01-15T13:41:12.340Z,14.63
2023-01-15T13:43:48.827Z,15.55
2023-01-15T13:46:28.069Z,11.98
2023-01-15T13:49:07.115Z,16.38
2023-01-15T13:51:45.349Z,18.48
2023-01-15T13:54:21.946Z,15.50
2023-01-15T13:56:57.598Z,9.70
2023-01-15T13:59:44.628Z,12.35
2023-01-15T14:02:28.978Z,11.48
2023-01-15T14:05:06.181Z,13.50
2023-01-15T14:07:42.605Z,12.65
2023-01-15T14:10:30.077Z,10.70
2023-01-15T14:13:18.317Z,11.32
2023-01-15T14:15:57.983Z,14.85
2023-01-15T14:18:40.547Z,11.80
2023-01-15T14:21:30.044Z,14.98
2023-01-15T14:24:13.414Z,9.90
2023-01-15T14:26:51.038Z,9.45
2023-01-15T14:29:48.952Z,14.23
2023-01-15T14:32:30.026Z,12.93
2023-01-15T14:35:06.507Z,13.32
2023-01-15T14:37:50.377Z,10.73
2023-01-15T14:40:29.498Z,13.48
2023-01-15T14:43:06.643Z,14.40
2023-01-15T14:45:42.069Z,13.05
2023-01-15T14:48:23.570Z,13.05
2023-01-15T14:50:59.233Z,8.60
2023-01-15T14:53:40.023Z,11.60
2023-01-15T14:56:23.671Z,10.60
2023-01-15T14:59:01.340Z,13.02
2023-01-15T15:01:40.767Z,12.30
2023-01-15T15:04:38.911Z,9.30
2023-01-15T15:07:18.393Z,12.23
2023-01-15T15:09:54.223Z,10.35
2023-01-15T15:12:36.311Z,10.60
2023-01-15T15:15:16.701Z,13.00
2023-01-15T15:17:57.877Z,11.88
2023-01-15T15:20:36.664Z,13.05
2023-01-15T15:23:16.016Z,11.80
2023-01-15T15:25:53.507Z,13.35
2023-01-15T15:28:30.702Z,11.13
2023-01-15T15:31:05.892Z,16.80
2023-01-15T15:33:43.631Z,12.68
2023-01-15T15:36:18.617Z,14.30
2023-01-15T15:38:58.007Z,13.40
2023-01-15T15:41:50.640Z,12.77
2023-01-15T15:44:49.989Z,12.30
2023-01-15T15:47:41.527Z,10.57
2023-01-15T15:50:25.090Z,10.82
2023-01-15T15:53:00.778Z,13.70
2023-01-15T15:55:41.186Z,10.27
2023-01-15T15:58:21.309Z,10.93
2023-01-15T16:00:59.305Z,10.20
2023-01-15T16:03:34.788Z,8.10
2023-01-15T16:06:12.103Z,12.55
2023-01-15T16:08:56.882Z,9.02
2023-01-15T16:11:31.902Z,9.68
2023-01-15T16:14:10.375Z,9.30
2023-01-15T16:16:48.630Z,9.70
2023-01-15T16:19:27.150Z,10.13
2023-01-15T16:22:02.003Z,9.55
2023-01-15T16:24:36.817Z,9.75
2023-01-15T16:27:13.775Z,9.43
2023-01-15T16:29:53.739Z,8.30
2023-01-15T16:32:32.634Z,11.40
2023-01-15T16:35:10.226Z,9.82
2023-01-15T16:37:45.450Z,8.52
2023-01-15T16:40:30.168Z,7.43
2023-01-15T16:43:12.264Z,12.23
2023-01-15T16:46:02.753Z,9.45
2023-01-15T16:48:41.417Z,9.95
2023-01-15T16:51:44.743Z,9.40
2023-01-15T16:54:33.650Z,10.20
2023-01-15T16:57:08.833Z,7.22
2023-01-15T16:59:58.062Z,10.52
2023-01-15T17:02:37.028Z,11.38
2023-01-15T17:05:22.851Z,12.45
2023-01-15T17:08:03.007Z,12.65
2023-01-15T17:10:38.255Z,11.15
2023-01-15T17:13:21.316Z,9.13
2023-01-15T17:16:07.352Z,14.43
2023-01-15T17:18:42.188Z,10.18
2023-01-15T17:21:21.220Z,9.57
2023-01-15T17:23:56.603Z,8.40
2023-01-15T17:26:31.591Z,11.30
2023-01-15T17:29:06.391Z,10.15
2023-01-15T17:31:45.118Z,8.45
2023-01-15T17:34:25.079Z,11.63
2023-01-15T17:37:01.695Z,9.18
2023-01-15T17:39:36.543Z,8.50
2023-01-15T17:42:18.351Z,7.85
2023-01-15T17:44:53.724Z,12.23
2023-01-15T17:47:29.074Z,7.38
2023-01-15T17:50:03.938Z,8.77
2023-01-15T17:52:40.994Z,9.98
2023-01-15T17:55:32.630Z,8.77
2023-01-15T17:58:22.991Z,8.35
2023-01-15T18:01:13.850Z,8.73
2023-01-15T18:04:07.313Z,9.80
2023-01-15T18:06:42.639Z,8.13
2023-01-15T18:09:19.650Z,7.35
2023-01-15T18:11:54.482Z,10.05
2023-01-15T18:14:29.519Z,9.32
2023-01-15T18:17:04.677Z,8.15
2023-01-15T18:19:39.987Z,9.15
2023-01-15T18:22:15.377Z,8.35
2023-01-15T18:24:52.342Z,12.02
2023-01-15T18:27:31.715Z,8.52
2023-01-15T18:30:06.340Z,8.80
2023-01-15T18:32:41.373Z,9.15
2023-01-15T18:35:17.115Z,9.65
2023-01-15T18:37:54.190Z,11.68
2023-01-15T18:40:33.950Z,11.07
2023-01-15T18:43:26.891Z,10.98
2023-01-15T18:46:22.624Z,11.75
2023-01-15T18:48:59.280Z,9.85
2023-01-15T18:51:36.170Z,8.73
2023-01-15T18:54:13.873Z,8.98
2023-01-15T18:56:52.815Z,7.72
2023-01-15T18:59:29.621Z,11.00
2023-01-15T19:02:06.149Z,9.68
2023-01-15T19:04:42.758Z,7.43
2023-01-15T19:07:20.197Z,9.98
2023-01-15T19:09:56.940Z,8.35
2023-01-15T19:12:35.112Z,8.23
2023-01-15T19:15:27.419Z,11.82
2023-01-15T19:18:21.290Z,10.05
2023-01-15T19:20:57.082Z,6.90
2023-01-15T19:23:33.212Z,9.80
2023-01-15T19:26:09.896Z,10.23
2023-01-15T19:28:48.155Z,10.57
2023-01-15T19:31:40.963Z,10.15
2023-01-15T19:34:33.476Z,8.45
2023-01-15T19:37:10.261Z,9.32
2023-01-15T19:39:46.852Z,11.38
2023-01-15T19:42:40.627Z,14.68
2023-01-15T19:45:35.875Z,7.88
2023-01-15T19:48:26.732Z,8.65
2023-01-15T19:51:02.199Z,7.07
2023-01-15T19:53:38.872Z,10.65
2023-01-15T19:56:13.552Z,5.65
2023-01-15T19:58:48.126Z,5.97
2023-01-15T20:01:25.508Z,5.75
2023-01-15T20:04:01.862Z,8.25
2023-01-15T20:06:37.385Z,6.82
2023-01-15T20:09:13.685Z,6.90
2023-01-15T20:12:02.082Z,8.88
2023-01-15T20:14:38.280Z,6.85
2023-01-15T20:17:15.640Z,18.70
2023-01-15T20:19:51.074Z,24.05
2023-01-15T20:22:28.927Z,9.98
2023-01-15T20:25:05.304Z,14.18
2023-01-15T20:27:42.157Z,12.10
2023-01-15T20:30:20.341Z,11.95
2023-01-15T20:33:00.536Z,15.25
2023-01-15T20:35:36.448Z,8.70
2023-01-15T20:38:11.944Z,8.15
2023-01-15T20:40:47.943Z,9.75
2023-01-15T20:43:40.310Z,5.60
2023-01-15T20:46:20.676Z,6.53
2023-01-15T20:49:13.825Z,9.20
2023-01-15T20:51:49.791Z,7.32
2023-01-15T20:54:27.296Z,8.10
2023-01-15T20:57:03.790Z,8.30
2023-01-15T20:59:39.369Z,6.95
2023-01-15T21:02:17.391Z,6.47
2023-01-15T21:04:55.453Z,5.97
2023-01-15T21:07:31.430Z,6.78
2023-01-15T21:10:07.375Z,6.05
2023-01-15T21:12:43.511Z,5.50
2023-01-15T21:15:19.421Z,5.22
2023-01-15T21:17:55.075Z,7.70
2023-01-15T21:20:32.369Z,6.55
2023-01-15T21:23:07.560Z,4.75
2023-01-15T21:25:44.864Z,6.22
2023-01-15T21:28:21.762Z,5.10
2023-01-15T21:30:57.278Z,8.43
2023-01-15T21:33:32.539Z,5.47
2023-01-15T21:36:14.824Z,9.35
2023-01-15T21:38:56.561Z,3.97
2023-01-15T21:41:44.517Z,5.32
2023-01-15T21:44:37.336Z,3.80
2023-01-15T21:47:18.534Z,4.97
2023-01-15T21:49:54.177Z,4.07
2023-01-15T21:52:32.166Z,5.97
2023-01-15T21:55:07.515Z,4.78
2023-01-15T21:57:43.790Z,4.10
2023-01-15T22:00:22.349Z,3.97
2023-01-15T22:03:00.220Z,6.70
2023-01-15T22:05:35.771Z,6.10
2023-01-15T22:08:13.960Z,5.45
2023-01-15T22:10:50.067Z,3.33
2023-01-15T22:13:25.766Z,5.38
2023-01-15T22:16:01.913Z,6.88
2023-01-15T22:18:38.635Z,5.70
2023-01-15T22:21:17.105Z,8.85
2023-01-15T22:23:55.301Z,6.38
2023-01-15T22:26:32.360Z,3.10
2023-01-15T22:29:08.805Z,6.65
2023-01-15T22:31:46.394Z,4.35
2023-01-15T22:34:23.030Z,4.20
2023-01-15T22:36:58.639Z,7.32
2023-01-15T22:39:36.674Z,4.30
2023-01-15T22:42:32.833Z,4.50
2023-01-15T22:45:08.885Z,4.97
2023-01-15T22:47:44.897Z,3.50
2023-01-15T22:50:21.558Z,6.75
2023-01-15T22:52:58.165Z,4.85
2023-01-15T22:55:35.797Z,6.97
2023-01-15T22:58:11.192Z,4.70
2023-01-15T23:00:48.435Z,3.60
2023-01-15T23:03:25.135Z,6.57
2023-01-15T23:06:00.671Z,4.40
2023-01-15T23:08:37.189Z,5.05
2023-01-15T23:11:18.036Z,4.65
2023-01-15T23:13:53.921Z,6.13
2023-01-15T23:16:29.361Z,4.35
2023-01-15T23:19:05.523Z,7.72
2023-01-15T23:21:41.778Z,3.75
2023-01-15T23:24:18.143Z,2.78
2023-01-15T23:26:55.918Z,4.13
2023-01-15T23:29:31.210Z,6.70
2023-01-15T23:32:07.553Z,7.30
2023-01-15T23:34:44.976Z,5.65
2023-01-15T23:37:20.875Z,3.70
2023-01-15T23:39:56.356Z,6.22
2023-01-15T23:42:50.660Z,6.70
2023-01-15T23:45:42.024Z,4.82
2023-01-15T23:48:18.187Z,6.18
2023-01-15T23:50:53.920Z,7.05
2023-01-15T23:53:29.915Z,7.95
2023-01-15T23:56:06.474Z,9.05
2023-01-15T23:58:47.137Z,5.50
